createdAt,value
2023-05-18T00:00:19.627Z,63.46
2023-05-18T00:02:48.705Z,63.60
2023-05-18T00:05:20.380Z,63.56
2023-05-18T00:07:47.830Z,63.37
2023-05-18T00:10:14.937Z,63.83
2023-05-18T00:12:41.985Z,63.34
2023-05-18T00:15:10.124Z,63.88
2023-05-18T00:17:37.494Z,64.00
2023-05-18T00:20:05.410Z,64.51
2023-05-18T00:22:32.898Z,64.01
2023-05-18T00:25:00.183Z,64.51
2023-05-18T00:27:27.322Z,64.53
2023-05-18T00:29:54.437Z,64.68
2023-05-18T00:32:21.607Z,64.94
2023-05-18T00:34:51.596Z,64.85
2023-05-18T00:37:18.768Z,64.07
2023-05-18T00:39:45.751Z,64.36
2023-05-18T00:42:13.283Z,64.41
2023-05-18T00:44:40.538Z,64.54
2023-05-18T00:47:07.775Z,64.08
2023-05-18T00:49:35.180Z,64.23
2023-05-18T00:52:03.931Z,63.96
2023-05-18T00:54:33.325Z,64.29
2023-05-18T00:57:03.998Z,64.74
2023-05-18T00:59:32.833Z,64.55
2023-05-18T01:01:59.980Z,64.08
2023-05-18T01:13:27.378Z,65.67
2023-05-18T01:15:59.330Z,65.72
2023-05-18T01:18:43.736Z,65.29
2023-05-18T01:21:49.675Z,65.35
2023-05-18T01:24:27.057Z,65.53
2023-05-18T01:27:00.137Z,65.73
2023-05-18T01:29:30.579Z,65.23
2023-05-18T01:31:58.306Z,65.55
2023-05-18T01:34:25.603Z,65.44
2023-05-18T01:36:52.735Z,65.53
2023-05-18T01:39:24.257Z,65.84
2023-05-18T01:42:06.044Z,65.86
2023-05-18T01:44:51.076Z,65.73
2023-05-18T01:47:18.727Z,65.47
2023-05-18T01:49:57.666Z,65.89
2023-05-18T01:52:53.850Z,65.93
2023-05-18T01:55:24.316Z,65.30
2023-05-18T01:57:54.495Z,65.85
2023-05-18T02:00:23.447Z,65.88
2023-05-18T02:02:50.856Z,65.76
2023-05-18T02:05:21.176Z,66.18
2023-05-18T02:07:49.555Z,65.77
2023-05-18T02:10:16.830Z,65.90
2023-05-18T02:12:44.664Z,65.70
2023-05-18T02:15:12.006Z,65.94
2023-05-18T02:17:39.554Z,66.45
2023-05-18T02:20:28.931Z,66.45
2023-05-18T02:22:57.244Z,66.79
2023-05-18T02:25:24.371Z,66.89
2023-05-18T02:27:51.534Z,66.86
2023-05-18T02:30:19.328Z,66.82
2023-05-18T02:32:47.235Z,65.96
2023-05-18T02:35:17.425Z,66.27
2023-05-18T02:37:45.546Z,66.37
2023-05-18T02:40:16.253Z,65.87
2023-05-18T02:42:43.814Z,65.44
2023-05-18T02:45:11.801Z,65.58
2023-05-18T02:47:41.309Z,65.71
2023-05-18T02:50:08.664Z,65.02
2023-05-18T02:52:36.526Z,64.78
2023-05-18T02:55:04.773Z,64.03
2023-05-18T02:57:58.220Z,64.31
2023-05-18T03:00:42.287Z,65.27
2023-05-18T03:03:11.184Z,62.81
2023-05-18T03:05:39.626Z,62.97
2023-05-18T03:08:07.371Z,62.58
2023-05-18T03:10:34.547Z,62.56
2023-05-18T03:13:01.748Z,62.54
2023-05-18T03:15:31.864Z,62.07
2023-05-18T03:18:02.313Z,61.86
2023-05-18T03:20:31.801Z,62.36
2023-05-18T03:22:58.931Z,61.97
2023-05-18T03:25:26.707Z,61.83
2023-05-18T03:27:53.999Z,61.33
2023-05-18T03:30:25.556Z,61.40
2023-05-18T03:32:53.365Z,60.98
2023-05-18T03:35:20.905Z,60.93
2023-05-18T03:37:48.112Z,59.42
2023-05-18T03:40:16.391Z,58.30
2023-05-18T03:42:45.012Z,57.94
2023-05-18T03:45:12.928Z,58.20
2023-05-18T03:47:40.806Z,57.98
2023-05-18T03:50:08.438Z,58.63
2023-05-18T03:52:36.415Z,58.41
2023-05-18T03:55:04.594Z,58.60
2023-05-18T03:57:33.791Z,58.46
2023-05-18T04:00:07.697Z,58.53
2023-05-18T04:02:44.873Z,58.11
2023-05-18T04:05:14.695Z,58.18
2023-05-18T04:07:46.327Z,58.78
2023-05-18T04:10:14.299Z,55.62
2023-05-18T04:12:42.980Z,55.47
2023-05-18T04:15:14.508Z,54.46
2023-05-18T04:17:46.125Z,53.51
2023-05-18T04:20:14.736Z,51.64
2023-05-18T04:22:43.719Z,48.03
2023-05-18T04:25:11.829Z,43.74
2023-05-18T04:27:40.001Z,43.83
2023-05-18T04:30:08.749Z,40.71
2023-05-18T04:32:36.644Z,39.80
2023-05-18T04:35:06.718Z,37.67
2023-05-18T04:37:34.342Z,35.45
2023-05-18T04:40:07.618Z,34.84
2023-05-18T04:42:35.821Z,32.49
2023-05-18T04:45:03.539Z,31.59
2023-05-18T04:47:31.362Z,31.16
2023-05-18T04:49:58.616Z,28.61
2023-05-18T04:52:26.193Z,27.85
2023-05-18T04:54:53.221Z,27.27
2023-05-18T04:57:20.603Z,27.63
2023-05-18T04:59:48.170Z,26.83
2023-05-18T05:02:15.365Z,26.65
2023-05-18T05:04:42.558Z,26.42
2023-05-18T05:07:09.718Z,26.01
2023-05-18T05:09:37.006Z,25.37
2023-05-18T05:12:04.411Z,25.12
2023-05-18T05:14:32.146Z,23.24
2023-05-18T05:16:59.407Z,22.99
2023-05-18T05:19:26.753Z,22.12
2023-05-18T05:21:53.838Z,22.05
2023-05-18T05:24:21.018Z,21.75
2023-05-18T05:26:48.184Z,21.84
2023-05-18T05:29:15.148Z,21.37
2023-05-18T05:31:42.326Z,21.76
2023-05-18T05:34:12.149Z,21.09
2023-05-18T05:36:39.712Z,20.63
2023-05-18T05:39:06.781Z,20.81
2023-05-18T05:41:33.905Z,20.82
2023-05-18T05:44:01.709Z,19.66
2023-05-18T05:46:29.026Z,20.22
2023-05-18T05:48:57.607Z,19.45
2023-05-18T05:51:24.613Z,19.01
2023-05-18T05:53:51.688Z,18.81
2023-05-18T05:56:18.784Z,19.04
2023-05-18T05:58:46.731Z,19.07
2023-05-18T06:01:14.088Z,19.21
2023-05-18T06:03:41.482Z,17.88
2023-05-18T06:06:09.864Z,17.19
2023-05-18T06:08:36.912Z,16.94
2023-05-18T06:11:04.297Z,16.52
2023-05-18T06:13:32.190Z,17.15
2023-05-18T06:15:59.322Z,16.87
2023-05-18T06:18:26.401Z,16.72
2023-05-18T06:20:57.879Z,17.44
2023-05-18T06:23:25.123Z,16.36
2023-05-18T06:26:01.096Z,16.83
2023-05-18T06:28:48.443Z,17.37
2023-05-18T06:31:24.451Z,17.49
2023-05-18T06:33:58.069Z,18.33
2023-05-18T06:36:25.176Z,18.48
2023-05-18T06:38:52.788Z,18.46
2023-05-18T06:41:19.857Z,17.38
2023-05-18T06:43:47.596Z,17.46
2023-05-18T06:46:26.626Z,17.91
2023-05-18T06:48:57.874Z,18.16
2023-05-18T06:51:25.354Z,17.39
2023-05-18T06:53:54.638Z,16.10
2023-05-18T06:56:22.555Z,15.81
2023-05-18T06:58:50.115Z,15.70
2023-05-18T07:01:18.148Z,15.41
2023-05-18T07:03:47.050Z,14.99
2023-05-18T07:06:14.217Z,14.63
2023-05-18T07:08:41.364Z,13.99
2023-05-18T07:11:09.918Z,13.57
2023-05-18T07:13:37.022Z,14.60
2023-05-18T07:16:04.150Z,14.62
2023-05-18T07:18:31.264Z,14.86
2023-05-18T07:20:58.228Z,14.58
2023-05-18T07:23:25.241Z,15.03
2023-05-18T07:25:52.392Z,14.59
2023-05-18T07:28:19.539Z,14.11
2023-05-18T07:30:46.613Z,13.53
2023-05-18T07:33:13.822Z,13.40
2023-05-18T07:35:41.249Z,13.16
2023-05-18T07:38:08.607Z,12.99
2023-05-18T07:40:35.693Z,12.29
2023-05-18T07:43:02.783Z,12.05
2023-05-18T07:45:30.139Z,12.79
2023-05-18T07:47:57.906Z,13.39
2023-05-18T07:50:25.097Z,13.66
2023-05-18T07:52:52.329Z,13.20
2023-05-18T07:55:19.338Z,12.57
2023-05-18T07:57:46.792Z,11.98
2023-05-18T08:00:14.339Z,12.04
2023-05-18T08:02:41.550Z,12.45
2023-05-18T08:05:11.726Z,12.16
2023-05-18T08:07:39.103Z,12.68
2023-05-18T08:10:06.510Z,12.30
2023-05-18T08:12:33.470Z,14.34
2023-05-18T08:15:04.695Z,13.00
2023-05-18T08:17:33.751Z,13.10
2023-05-18T08:20:01.146Z,13.59
2023-05-18T08:22:31.680Z,14.07
2023-05-18T08:25:01.030Z,13.59
2023-05-18T08:27:29.387Z,12.41
2023-05-18T08:29:56.571Z,12.43
2023-05-18T08:32:23.784Z,12.83
2023-05-18T08:34:51.935Z,12.45
2023-05-18T08:37:19.120Z,11.84
2023-05-18T08:39:46.472Z,12.42
2023-05-18T08:42:25.902Z,14.86
2023-05-18T08:45:03.805Z,15.87
2023-05-18T08:47:36.844Z,16.04
2023-05-18T08:50:05.513Z,16.66
2023-05-18T08:52:41.482Z,14.96
2023-05-18T08:55:12.449Z,14.37
2023-05-18T08:57:43.240Z,14.89
2023-05-18T09:00:12.252Z,14.72
2023-05-18T09:02:40.710Z,15.44
2023-05-18T09:05:09.287Z,15.06
2023-05-18T09:07:37.664Z,14.96
2023-05-18T09:10:05.715Z,15.48
2023-05-18T09:12:34.256Z,16.98
2023-05-18T09:15:01.861Z,16.37
2023-05-18T09:17:33.252Z,16.39
2023-05-18T09:20:00.328Z,15.73
2023-05-18T09:22:27.886Z,15.32
2023-05-18T09:24:55.737Z,15.02
2023-05-18T09:27:23.399Z,16.86
2023-05-18T09:29:55.949Z,14.68
2023-05-18T09:32:24.161Z,13.56
2023-05-18T09:34:51.574Z,13.42
2023-05-18T09:37:20.479Z,14.32
2023-05-18T09:40:08.176Z,13.07
2023-05-18T09:42:40.438Z,13.43
2023-05-18T09:45:19.469Z,12.77
2023-05-18T09:47:47.497Z,12.28
2023-05-18T09:50:14.650Z,11.86
2023-05-18T09:52:46.102Z,12.79
2023-05-18T09:55:15.767Z,12.91
2023-05-18T09:57:47.767Z,13.89
2023-05-18T10:00:17.040Z,15.51
2023-05-18T10:02:49.425Z,14.43
2023-05-18T10:05:36.869Z,13.64
2023-05-18T10:08:04.183Z,12.80
2023-05-18T10:10:31.550Z,12.67
2023-05-18T10:12:59.077Z,12.02
2023-05-18T10:15:26.454Z,11.84
2023-05-18T10:17:56.690Z,12.62
2023-05-18T10:20:26.146Z,11.27
2023-05-18T10:22:55.708Z,11.87
2023-05-18T10:25:26.141Z,11.54
2023-05-18T10:28:00.508Z,12.15
2023-05-18T10:30:28.432Z,14.04
2023-05-18T10:32:57.236Z,15.25
2023-05-18T10:35:28.495Z,16.30
2023-05-18T10:37:57.781Z,16.87
2023-05-18T10:40:26.994Z,16.24
2023-05-18T10:42:57.371Z,14.07
2023-05-18T10:45:26.536Z,13.67
2023-05-18T10:47:55.369Z,12.94
2023-05-18T10:50:26.491Z,14.22
2023-05-18T10:52:53.973Z,15.33
2023-05-18T10:55:21.256Z,16.07
2023-05-18T10:57:54.175Z,16.24
2023-05-18T11:00:21.416Z,13.93
2023-05-18T11:02:51.239Z,13.79
2023-05-18T11:05:25.048Z,13.36
2023-05-18T11:08:01.577Z,13.86
2023-05-18T11:10:40.042Z,15.12
2023-05-18T11:13:07.592Z,15.70
2023-05-18T11:15:53.129Z,17.57
2023-05-18T11:18:20.069Z,17.99
2023-05-18T11:20:48.491Z,17.17
2023-05-18T11:23:16.359Z,17.78
2023-05-18T11:25:44.129Z,16.90
2023-05-18T11:28:13.831Z,16.04
2023-05-18T11:30:40.737Z,17.12
2023-05-18T11:33:23.080Z,17.31
2023-05-18T11:36:11.872Z,19.59
2023-05-18T11:38:59.701Z,19.45
2023-05-18T11:41:34.818Z,19.73
2023-05-18T11:44:17.759Z,21.40
2023-05-18T11:47:05.765Z,21.14
2023-05-18T11:49:37.052Z,20.05
2023-05-18T11:52:14.343Z,21.16
2023-05-18T11:54:47.289Z,21.12
2023-05-18T11:57:16.006Z,22.47
2023-05-18T11:59:54.064Z,23.36
2023-05-18T12:02:24.070Z,23.11
2023-05-18T12:04:53.849Z,21.73
2023-05-18T12:07:21.897Z,23.22
2023-05-18T12:09:49.248Z,23.08
2023-05-18T12:12:20.233Z,23.50
2023-05-18T12:14:56.802Z,24.31
2023-05-18T12:17:24.717Z,23.75
2023-05-18T12:19:51.825Z,24.88
2023-05-18T12:22:18.785Z,23.73
2023-05-18T12:24:45.876Z,25.06
2023-05-18T12:27:13.483Z,24.11
2023-05-18T12:29:41.851Z,24.96
2023-05-18T12:32:10.902Z,24.50
2023-05-18T12:34:39.078Z,24.24
2023-05-18T12:37:08.059Z,23.83
2023-05-18T12:39:36.748Z,23.23
2023-05-18T12:42:15.294Z,23.57
2023-05-18T12:44:46.422Z,23.22
2023-05-18T12:47:14.887Z,24.45
2023-05-18T12:49:48.260Z,23.24
2023-05-18T12:52:16.844Z,23.89
2023-05-18T12:55:01.273Z,23.92
2023-05-18T12:57:30.625Z,23.65
2023-05-18T12:59:58.273Z,23.79
2023-05-18T13:02:34.439Z,24.87
2023-05-18T13:05:12.057Z,23.66
2023-05-18T13:07:43.491Z,23.72
2023-05-18T13:10:12.711Z,25.10
2023-05-18T13:12:49.084Z,25.24
2023-05-18T13:15:17.479Z,25.59
2023-05-18T13:17:59.337Z,24.98
2023-05-18T13:20:39.470Z,24.71
2023-05-18T13:23:09.960Z,24.19
2023-05-18T13:25:37.114Z,24.65
2023-05-18T13:28:04.565Z,25.16
2023-05-18T13:30:32.506Z,25.18
2023-05-18T13:33:00.324Z,25.19
2023-05-18T13:35:34.353Z,25.27
2023-05-18T13:38:07.328Z,24.86
2023-05-18T13:40:34.233Z,25.50
2023-05-18T13:43:01.134Z,25.40
2023-05-18T13:45:28.197Z,24.74
2023-05-18T13:47:55.240Z,25.22
2023-05-18T13:50:23.179Z,25.21
2023-05-18T13:52:50.271Z,25.79
2023-05-18T13:55:17.185Z,26.49
2023-05-18T13:57:45.368Z,26.29
2023-05-18T14:00:13.902Z,26.13
2023-05-18T14:02:41.830Z,26.25
2023-05-18T14:05:09.952Z,27.07
2023-05-18T14:07:37.876Z,26.44
2023-05-18T14:10:06.522Z,26.87
2023-05-18T14:12:33.688Z,26.80
2023-05-18T14:15:01.055Z,26.84
2023-05-18T14:17:30.010Z,26.95
2023-05-18T14:19:58.009Z,27.03
2023-05-18T14:22:26.484Z,26.95
2023-05-18T14:24:54.063Z,27.49
2023-05-18T14:27:21.309Z,27.61
2023-05-18T14:29:49.185Z,27.85
2023-05-18T14:32:16.418Z,28.21
2023-05-18T14:34:43.500Z,29.02
2023-05-18T14:37:10.637Z,29.44
2023-05-18T14:39:38.094Z,29.54
2023-05-18T14:42:06.118Z,29.75
2023-05-18T14:44:33.126Z,30.40
2023-05-18T14:47:00.509Z,31.06
2023-05-18T14:49:27.794Z,32.34
2023-05-18T14:51:54.814Z,32.40
2023-05-18T14:54:22.572Z,32.79
2023-05-18T14:56:49.713Z,33.58
2023-05-18T14:59:17.419Z,33.59
2023-05-18T15:01:44.409Z,34.34
2023-05-18T15:04:11.574Z,34.20
2023-05-18T15:06:38.610Z,34.41
2023-05-18T15:09:06.548Z,34.84
2023-05-18T15:11:33.410Z,35.33
2023-05-18T15:14:00.240Z,35.64
2023-05-18T15:16:27.234Z,36.04
2023-05-18T15:18:54.191Z,36.25
2023-05-18T15:21:21.268Z,36.68
2023-05-18T15:23:49.080Z,37.09
2023-05-18T15:26:16.311Z,37.28
2023-05-18T15:28:45.161Z,38.06
2023-05-18T15:31:12.235Z,37.71
2023-05-18T15:33:42.572Z,38.50
2023-05-18T15:36:09.908Z,38.55
2023-05-18T15:38:36.951Z,38.73
2023-05-18T15:41:04.103Z,38.73
2023-05-18T15:43:31.313Z,39.14
2023-05-18T15:45:59.028Z,38.79
2023-05-18T15:48:26.085Z,39.00
2023-05-18T15:50:53.133Z,38.88
2023-05-18T15:53:20.096Z,38.79
2023-05-18T15:55:49.297Z,38.88
2023-05-18T15:58:16.530Z,38.56
2023-05-18T16:00:43.473Z,38.83
2023-05-18T16:03:11.056Z,39.08
2023-05-18T16:05:38.541Z,39.75
2023-05-18T16:08:05.931Z,40.25
2023-05-18T16:10:33.295Z,40.90
2023-05-18T16:13:06.005Z,41.47
2023-05-18T16:15:34.514Z,42.17
2023-05-18T16:18:03.887Z,43.00
2023-05-18T16:20:31.241Z,43.45
2023-05-18T16:22:59.286Z,44.20
2023-05-18T16:25:29.205Z,44.23
2023-05-18T16:27:56.546Z,44.76
2023-05-18T16:30:23.653Z,44.91
2023-05-18T16:32:50.694Z,45.32
2023-05-18T16:35:17.697Z,45.34
2023-05-18T16:37:44.736Z,45.98
2023-05-18T16:40:11.938Z,46.33
2023-05-18T16:42:39.461Z,46.69
2023-05-18T16:45:06.699Z,47.24
2023-05-18T16:47:33.813Z,47.36
2023-05-18T16:50:00.919Z,47.96
2023-05-18T16:52:28.332Z,48.01
2023-05-18T16:54:55.339Z,47.86
2023-05-18T16:57:22.407Z,48.36
2023-05-18T16:59:49.643Z,48.91
2023-05-18T17:02:17.980Z,48.71
2023-05-18T17:04:49.711Z,48.85
2023-05-18T17:07:17.277Z,49.39
2023-05-18T17:09:44.637Z,49.88
2023-05-18T17:12:12.332Z,50.17
2023-05-18T17:14:39.500Z,50.58
2023-05-18T17:17:07.081Z,50.93
2023-05-18T17:19:35.363Z,51.33
2023-05-18T17:22:03.405Z,51.85
2023-05-18T17:24:30.795Z,52.15
2023-05-18T17:26:58.332Z,52.36
2023-05-18T17:29:25.407Z,53.06
2023-05-18T17:31:52.580Z,53.27
2023-05-18T17:34:19.641Z,53.86
2023-05-18T17:36:46.737Z,54.30
2023-05-18T17:39:16.427Z,54.98
2023-05-18T17:41:44.070Z,55.13
2023-05-18T17:44:14.078Z,55.14
2023-05-18T17:46:41.855Z,55.70
2023-05-18T17:49:09.082Z,55.93
2023-05-18T17:51:36.392Z,56.46
2023-05-18T17:54:03.694Z,57.03
2023-05-18T17:56:31.830Z,57.14
2023-05-18T17:58:59.280Z,57.36
2023-05-18T18:01:28.850Z,57.77
2023-05-18T18:03:57.055Z,58.10
2023-05-18T18:06:24.929Z,58.34
2023-05-18T18:08:54.718Z,58.65
2023-05-18T18:11:22.114Z,58.57
2023-05-18T18:13:50.136Z,58.88
2023-05-18T18:16:18.779Z,59.27
2023-05-18T18:18:46.286Z,59.59
2023-05-18T18:21:13.724Z,59.75
2023-05-18T18:23:41.052Z,60.16
2023-05-18T18:26:08.454Z,60.38
2023-05-18T18:28:35.839Z,60.29
2023-05-18T18:31:03.609Z,60.60
2023-05-18T18:33:32.843Z,60.98
2023-05-18T18:36:00.609Z,61.35
2023-05-18T18:38:28.830Z,61.36
2023-05-18T18:41:04.361Z,61.73
2023-05-18T18:43:31.929Z,61.56
2023-05-18T18:45:59.591Z,61.73
2023-05-18T18:48:27.083Z,62.08
2023-05-18T18:50:54.163Z,61.70
2023-05-18T18:53:21.463Z,61.70
2023-05-18T18:55:48.655Z,61.80
2023-05-18T18:58:18.339Z,62.01
2023-05-18T19:00:45.500Z,62.15
2023-05-18T19:03:16.236Z,61.87
2023-05-18T19:05:43.253Z,62.11
2023-05-18T19:08:10.379Z,62.40
2023-05-18T19:10:37.362Z,62.90
2023-05-18T19:13:06.450Z,62.96
2023-05-18T19:15:34.207Z,62.93
2023-05-18T19:18:01.850Z,63.25
2023-05-18T19:20:29.132Z,63.18
2023-05-18T19:22:56.490Z,63.43
2023-05-18T19:25:24.854Z,63.64
2023-05-18T19:27:53.453Z,63.76
2023-05-18T19:30:21.755Z,64.21
2023-05-18T19:32:53.323Z,64.45
2023-05-18T19:35:21.739Z,64.66
2023-05-18T19:37:49.117Z,65.05
2023-05-18T19:40:17.933Z,64.93
2023-05-18T19:42:45.010Z,65.04
2023-05-18T19:45:12.201Z,65.38
2023-05-18T19:47:39.472Z,65.64
2023-05-18T19:50:07.266Z,66.05
2023-05-18T19:52:34.766Z,65.73
2023-05-18T19:55:02.688Z,66.35
2023-05-18T19:57:35.156Z,66.31
2023-05-18T20:00:02.669Z,66.27
2023-05-18T20:02:40.682Z,66.49
2023-05-18T20:05:09.552Z,67.12
2023-05-18T20:07:36.946Z,67.20
2023-05-18T20:10:04.441Z,67.13
2023-05-18T20:12:34.021Z,67.57
2023-05-18T20:15:01.393Z,68.02
2023-05-18T20:17:40.772Z,68.12
2023-05-18T20:20:08.407Z,68.69
2023-05-18T20:22:35.751Z,69.08
2023-05-18T20:25:05.677Z,68.91
2023-05-18T20:27:32.989Z,69.46
2023-05-18T20:30:00.169Z,69.87
2023-05-18T20:32:27.332Z,69.88
2023-05-18T20:34:54.260Z,69.85
2023-05-18T20:37:21.520Z,70.62
2023-05-18T20:39:50.907Z,70.82
2023-05-18T20:42:22.749Z,71.27
2023-05-18T20:44:53.493Z,71.50
2023-05-18T20:47:20.951Z,71.55
2023-05-18T20:49:48.788Z,71.79
2023-05-18T20:52:16.760Z,72.22
2023-05-18T20:54:43.912Z,72.50
2023-05-18T20:57:11.125Z,72.78
2023-05-18T20:59:38.161Z,72.91
2023-05-18T21:02:05.351Z,73.44
2023-05-18T21:04:32.593Z,73.88
2023-05-18T21:06:59.696Z,74.04
2023-05-18T21:09:26.795Z,74.65
2023-05-18T21:11:53.940Z,74.76
2023-05-18T21:14:21.007Z,74.63
2023-05-18T21:16:48.158Z,74.87
2023-05-18T21:19:15.272Z,74.85
2023-05-18T21:21:43.094Z,75.38
2023-05-18T21:24:11.160Z,75.71
2023-05-18T21:26:38.366Z,75.73
2023-05-18T21:29:06.291Z,76.22
2023-05-18T21:31:33.514Z,76.11
2023-05-18T21:34:00.724Z,76.42
2023-05-18T21:36:35.048Z,76.61
2023-05-18T21:39:04.206Z,76.35
2023-05-18T21:41:32.264Z,76.77
2023-05-18T21:44:01.696Z,76.77
2023-05-18T21:46:28.861Z,77.03
2023-05-18T21:48:55.917Z,77.40
2023-05-18T21:51:23.236Z,77.55
2023-05-18T21:53:50.540Z,77.69
2023-05-18T21:56:17.783Z,77.33
2023-05-18T21:58:44.856Z,77.49
2023-05-18T22:01:11.951Z,77.70
2023-05-18T22:03:40.107Z,78.05
2023-05-18T22:06:07.392Z,78.41
2023-05-18T22:08:34.369Z,78.15
2023-05-18T22:11:01.532Z,78.16
2023-05-18T22:13:28.798Z,78.50
2023-05-18T22:15:56.315Z,78.68
2023-05-18T22:18:26.954Z,78.57
2023-05-18T22:20:59.403Z,78.46
2023-05-18T22:23:27.271Z,78.46
2023-05-18T22:25:54.289Z,78.18
2023-05-18T22:28:24.076Z,77.57
2023-05-18T22:30:52.447Z,77.33
2023-05-18T22:33:21.271Z,77.02
2023-05-18T22:35:48.387Z,76.71
2023-05-18T22:38:16.904Z,76.40
2023-05-18T22:40:45.599Z,76.05
2023-05-18T22:43:12.836Z,75.96
2023-05-18T22:45:40.004Z,75.93
2023-05-18T22:48:07.205Z,75.67
2023-05-18T22:50:34.971Z,75.71
2023-05-18T22:53:02.554Z,75.31
2023-05-18T22:55:30.000Z,75.45
2023-05-18T22:57:59.601Z,75.68
2023-05-18T23:00:28.782Z,75.84
2023-05-18T23:02:56.796Z,75.90
2023-05-18T23:05:23.924Z,75.75
2023-05-18T23:07:52.345Z,75.84
2023-05-18T23:10:19.638Z,75.58
2023-05-18T23:12:48.552Z,75.61
2023-05-18T23:15:15.616Z,75.78
2023-05-18T23:17:47.828Z,75.98
2023-05-18T23:20:14.966Z,76.19
2023-05-18T23:22:42.436Z,75.91
2023-05-18T23:25:10.170Z,75.94
2023-05-18T23:27:37.418Z,76.00
2023-05-18T23:30:04.922Z,76.28
2023-05-18T23:32:35.309Z,76.48
2023-05-18T23:35:04.566Z,76.68
2023-05-18T23:37:33.469Z,76.88
2023-05-18T23:40:04.100Z,76.60
2023-05-18T23:42:33.792Z,76.37
2023-05-18T23:45:01.240Z,76.68
2023-05-18T23:47:32.365Z,76.64
2023-05-18T23:49:59.738Z,76.81
2023-05-18T23:52:28.122Z,77.08
2023-05-18T23:54:56.050Z,76.69
2023-05-18T23:57:24.108Z,76.71
2023-05-18T23:59:51.589Z,76.98
